sensor_id;sensor_type;location;lat;lon;timestamp;P1;durP1;ratioP1;P2;durP2;ratioP2
24743;SDS011;12844;52.110;5.548;2022-09-09T00:00:25;0.70;;;0.70;;
24743;SDS011;12844;52.110;5.548;2022-09-09T00:03:02;0.90;;;0.70;;
24743;SDS011;12844;52.110;5.548;2022-09-09T00:05:31;0.75;;;0.70;;
24743;SDS011;12844;52.110;5.548;2022-09-09T00:08:20;1.23;;;0.68;;
24743;SDS011;12844;52.110;5.548;2022-09-09T00:10:58;0.52;;;0.52;;
24743;SDS011;12844;52.110;5.548;2022-09-09T00:21:38;0.80;;;0.60;;
24743;SDS011;12844;52.110;5.548;2022-09-09T00:24:26;0.88;;;0.60;;
24743;SDS011;12844;52.110;5.548;2022-09-09T00:27:00;0.70;;;0.70;;
24743;SDS011;12844;52.110;5.548;2022-09-09T00:29:33;0.95;;;0.60;;
24743;SDS011;12844;52.110;5.548;2022-09-09T00:32:11;0.80;;;0.70;;
24743;SDS011;12844;52.110;5.548;2022-09-09T00:34:46;0.77;;;0.57;;
24743;SDS011;12844;52.110;5.548;2022-09-09T00:37:31;0.60;;;0.60;;
24743;SDS011;12844;52.110;5.548;2022-09-09T00:39:59;0.60;;;0.60;;
24743;SDS011;12844;52.110;5.548;2022-09-09T00:42:47;0.80;;;0.70;;
24743;SDS011;12844;52.110;5.548;2022-09-09T00:45:35;0.93;;;0.70;;
24743;SDS011;12844;52.110;5.548;2022-09-09T00:48:16;1.40;;;0.60;;
24743;SDS011;12844;52.110;5.548;2022-09-09T00:56:21;0.75;;;0.60;;
24743;SDS011;12844;52.110;5.548;2022-09-09T00:58:55;0.90;;;0.60;;
24743;SDS011;12844;52.110;5.548;2022-09-09T01:01:35;0.90;;;0.60;;
24743;SDS011;12844;52.110;5.548;2022-09-09T01:04:01;1.25;;;0.73;;
24743;SDS011;12844;52.110;5.548;2022-09-09T01:06:36;0.98;;;0.55;;
24743;SDS011;12844;52.110;5.548;2022-09-09T01:12:16;1.23;;;0.70;;
24743;SDS011;12844;52.110;5.548;2022-09-09T01:14:58;1.08;;;0.60;;
24743;SDS011;12844;52.110;5.548;2022-09-09T01:18:20;1.15;;;0.70;;
24743;SDS011;12844;52.110;5.548;2022-09-09T01:20:23;0.60;;;0.52;;
24743;SDS011;12844;52.110;5.548;2022-09-09T01:28:13;0.50;;;0.50;;
24743;SDS011;12844;52.110;5.548;2022-09-09T01:30:43;0.70;;;0.60;;
24743;SDS011;12844;52.110;5.548;2022-09-09T06:43:16;0.55;;;0.45;;
24743;SDS011;12844;52.110;5.548;2022-09-09T06:45:43;0.70;;;0.50;;
24743;SDS011;12844;52.110;5.548;2022-09-09T06:48:17;1.10;;;0.50;;
24743;SDS011;12844;52.110;5.548;2022-09-09T06:50:42;0.55;;;0.40;;
24743;SDS011;12844;52.110;5.548;2022-09-09T06:53:08;0.63;;;0.45;;
24743;SDS011;12844;52.110;5.548;2022-09-09T06:55:33;0.98;;;0.50;;
24743;SDS011;12844;52.110;5.548;2022-09-09T06:57:59;1.60;;;0.50;;
24743;SDS011;12844;52.110;5.548;2022-09-09T07:00:25;1.45;;;0.50;;
24743;SDS011;12844;52.110;5.548;2022-09-09T07:02:51;1.25;;;0.63;;
24743;SDS011;12844;52.110;5.548;2022-09-09T07:05:16;0.95;;;0.57;;
24743;SDS011;12844;52.110;5.548;2022-09-09T07:07:42;1.15;;;0.50;;
24743;SDS011;12844;52.110;5.548;2022-09-09T07:10:08;0.68;;;0.47;;
24743;SDS011;12844;52.110;5.548;2022-09-09T07:12:33;0.80;;;0.47;;
24743;SDS011;12844;52.110;5.548;2022-09-09T07:14:59;1.30;;;0.50;;
24743;SDS011;12844;52.110;5.548;2022-09-09T07:17:25;0.68;;;0.55;;
24743;SDS011;12844;52.110;5.548;2022-09-09T07:19:53;0.68;;;0.52;;
24743;SDS011;12844;52.110;5.548;2022-09-09T07:22:18;1.05;;;0.60;;
24743;SDS011;12844;52.110;5.548;2022-09-09T07:24:45;1.35;;;0.50;;
24743;SDS011;12844;52.110;5.548;2022-09-09T07:27:10;1.00;;;0.43;;
24743;SDS011;12844;52.110;5.548;2022-09-09T07:29:36;1.00;;;0.70;;
24743;SDS011;12844;52.110;5.548;2022-09-09T07:32:02;1.10;;;0.50;;
24743;SDS011;12844;52.110;5.548;2022-09-09T07:34:29;0.77;;;0.52;;
24743;SDS011;12844;52.110;5.548;2022-09-09T07:36:55;0.77;;;0.60;;
24743;SDS011;12844;52.110;5.548;2022-09-09T07:39:22;1.55;;;0.73;;
24743;SDS011;12844;52.110;5.548;2022-09-09T07:41:48;1.55;;;0.50;;
24743;SDS011;12844;52.110;5.548;2022-09-09T07:44:15;1.48;;;0.55;;
24743;SDS011;12844;52.110;5.548;2022-09-09T07:46:42;1.38;;;0.70;;
24743;SDS011;12844;52.110;5.548;2022-09-09T07:49:08;1.08;;;0.55;;
24743;SDS011;12844;52.110;5.548;2022-09-09T07:51:36;2.03;;;0.60;;
24743;SDS011;12844;52.110;5.548;2022-09-09T07:54:05;0.98;;;0.68;;
24743;SDS011;12844;52.110;5.548;2022-09-09T07:56:32;0.95;;;0.57;;
24743;SDS011;12844;52.110;5.548;2022-09-09T07:58:58;1.38;;;0.60;;
24743;SDS011;12844;52.110;5.548;2022-09-09T08:01:27;0.93;;;0.52;;
24743;SDS011;12844;52.110;5.548;2022-09-09T08:03:56;1.30;;;0.52;;
24743;SDS011;12844;52.110;5.548;2022-09-09T08:06:24;1.05;;;0.60;;
24743;SDS011;12844;52.110;5.548;2022-09-09T08:08:51;1.35;;;0.63;;
24743;SDS011;12844;52.110;5.548;2022-09-09T08:11:17;1.20;;;0.57;;
24743;SDS011;12844;52.110;5.548;2022-09-09T08:13:43;1.52;;;0.68;;
24743;SDS011;12844;52.110;5.548;2022-09-09T08:16:10;0.85;;;0.60;;
24743;SDS011;12844;52.110;5.548;2022-09-09T08:18:38;1.17;;;0.60;;
24743;SDS011;12844;52.110;5.548;2022-09-09T08:21:08;1.85;;;0.77;;
24743;SDS011;12844;52.110;5.548;2022-09-09T08:23:37;2.10;;;0.80;;
24743;SDS011;12844;52.110;5.548;2022-09-09T08:26:07;1.65;;;0.70;;
24743;SDS011;12844;52.110;5.548;2022-09-09T08:28:39;1.80;;;0.63;;
24743;SDS011;12844;52.110;5.548;2022-09-09T08:31:08;1.63;;;0.50;;
24743;SDS011;12844;52.110;5.548;2022-09-09T08:33:36;1.35;;;0.68;;
24743;SDS011;12844;52.110;5.548;2022-09-09T08:36:03;1.15;;;0.70;;
24743;SDS011;12844;52.110;5.548;2022-09-09T08:38:30;0.90;;;0.65;;
24743;SDS011;12844;52.110;5.548;2022-09-09T08:40:58;0.90;;;0.60;;
24743;SDS011;12844;52.110;5.548;2022-09-09T08:43:35;1.38;;;0.60;;
24743;SDS011;12844;52.110;5.548;2022-09-09T08:46:07;1.30;;;0.60;;
24743;SDS011;12844;52.110;5.548;2022-09-09T08:48:58;1.02;;;0.60;;
24743;SDS011;12844;52.110;5.548;2022-09-09T08:51:32;1.85;;;0.63;;
24743;SDS011;12844;52.110;5.548;2022-09-09T08:53:58;1.55;;;0.50;;
24743;SDS011;12844;52.110;5.548;2022-09-09T08:56:26;1.88;;;0.60;;
24743;SDS011;12844;52.110;5.548;2022-09-09T08:58:56;1.60;;;0.60;;
24743;SDS011;12844;52.110;5.548;2022-09-09T09:09:57;1.45;;;0.60;;
24743;SDS011;12844;52.110;5.548;2022-09-09T09:12:46;1.45;;;0.75;;
24743;SDS011;12844;52.110;5.548;2022-09-09T09:15:19;0.82;;;0.63;;
24743;SDS011;12844;52.110;5.548;2022-09-09T09:17:48;1.10;;;0.50;;
24743;SDS011;12844;52.110;5.548;2022-09-09T09:20:16;1.77;;;0.60;;
24743;SDS011;12844;52.110;5.548;2022-09-09T09:25:22;2.00;;;0.70;;
24743;SDS011;12844;52.110;5.548;2022-09-09T09:28:00;1.45;;;0.63;;
24743;SDS011;12844;52.110;5.548;2022-09-09T09:36:18;1.15;;;0.50;;
24743;SDS011;12844;52.110;5.548;2022-09-09T09:39:00;1.80;;;0.63;;
24743;SDS011;12844;52.110;5.548;2022-09-09T09:41:32;1.00;;;0.63;;
24743;SDS011;12844;52.110;5.548;2022-09-09T09:43:59;1.75;;;0.63;;
24743;SDS011;12844;52.110;5.548;2022-09-09T09:46:26;1.10;;;0.45;;
24743;SDS011;12844;52.110;5.548;2022-09-09T09:51:30;1.20;;;0.68;;
24743;SDS011;12844;52.110;5.548;2022-09-09T09:54:06;1.23;;;0.60;;
24743;SDS011;12844;52.110;5.548;2022-09-09T09:56:38;1.90;;;0.77;;
24743;SDS011;12844;52.110;5.548;2022-09-09T09:59:05;1.83;;;0.65;;
24743;SDS011;12844;52.110;5.548;2022-09-09T10:02:06;1.48;;;0.65;;
24743;SDS011;12844;52.110;5.548;2022-09-09T10:04:39;1.48;;;0.80;;
24743;SDS011;12844;52.110;5.548;2022-09-09T10:07:24;2.35;;;0.70;;
24743;SDS011;12844;52.110;5.548;2022-09-09T10:09:52;1.15;;;0.60;;
24743;SDS011;12844;52.110;5.548;2022-09-09T10:15:07;1.65;;;0.60;;
24743;SDS011;12844;52.110;5.548;2022-09-09T10:23:16;1.58;;;0.60;;
24743;SDS011;12844;52.110;5.548;2022-09-09T10:29:13;1.25;;;0.70;;
24743;SDS011;12844;52.110;5.548;2022-09-09T10:34:39;2.53;;;0.60;;
24743;SDS011;12844;52.110;5.548;2022-09-09T10:37:28;1.25;;;0.60;;
24743;SDS011;12844;52.110;5.548;2022-09-09T10:40:15;1.73;;;0.60;;
24743;SDS011;12844;52.110;5.548;2022-09-09T10:42:46;1.95;;;0.77;;
24743;SDS011;12844;52.110;5.548;2022-09-09T10:50:43;2.08;;;0.80;;
24743;SDS011;12844;52.110;5.548;2022-09-09T10:53:17;1.90;;;0.63;;
24743;SDS011;12844;52.110;5.548;2022-09-09T10:56:12;0.82;;;0.60;;
24743;SDS011;12844;52.110;5.548;2022-09-09T10:58:46;1.52;;;0.70;;
24743;SDS011;12844;52.110;5.548;2022-09-09T11:01:17;1.70;;;0.70;;
24743;SDS011;12844;52.110;5.548;2022-09-09T11:03:47;1.27;;;0.65;;
24743;SDS011;12844;52.110;5.548;2022-09-09T11:06:20;1.00;;;0.60;;
24743;SDS011;12844;52.110;5.548;2022-09-09T11:08:53;2.00;;;0.85;;
24743;SDS011;12844;52.110;5.548;2022-09-09T11:11:37;1.80;;;0.70;;
24743;SDS011;12844;52.110;5.548;2022-09-09T11:14:15;2.03;;;0.82;;
24743;SDS011;12844;52.110;5.548;2022-09-09T11:16:57;1.45;;;0.80;;
24743;SDS011;12844;52.110;5.548;2022-09-09T11:22:05;3.10;;;0.80;;
24743;SDS011;12844;52.110;5.548;2022-09-09T11:24:56;1.17;;;0.77;;
24743;SDS011;12844;52.110;5.548;2022-09-09T11:27:45;1.10;;;0.60;;
24743;SDS011;12844;52.110;5.548;2022-09-09T11:30:44;2.08;;;0.93;;
24743;SDS011;12844;52.110;5.548;2022-09-09T11:41:04;1.42;;;0.75;;
24743;SDS011;12844;52.110;5.548;2022-09-09T11:43:33;1.92;;;0.68;;
24743;SDS011;12844;52.110;5.548;2022-09-09T11:46:05;1.52;;;0.80;;
24743;SDS011;12844;52.110;5.548;2022-09-09T11:48:39;1.60;;;0.77;;
24743;SDS011;12844;52.110;5.548;2022-09-09T11:51:11;1.05;;;0.70;;
24743;SDS011;12844;52.110;5.548;2022-09-09T11:59:03;0.85;;;0.60;;
24743;SDS011;12844;52.110;5.548;2022-09-09T12:06:45;1.63;;;0.80;;
24743;SDS011;12844;52.110;5.548;2022-09-09T12:09:27;1.20;;;0.80;;
24743;SDS011;12844;52.110;5.548;2022-09-09T12:17:19;1.38;;;0.82;;
24743;SDS011;12844;52.110;5.548;2022-09-09T12:19:47;2.17;;;0.80;;
24743;SDS011;12844;52.110;5.548;2022-09-09T12:22:26;1.73;;;0.70;;
24743;SDS011;12844;52.110;5.548;2022-09-09T12:24:55;2.00;;;0.70;;
24743;SDS011;12844;52.110;5.548;2022-09-09T12:27:31;2.47;;;0.82;;
24743;SDS011;12844;52.110;5.548;2022-09-09T12:30:09;1.73;;;0.80;;
24743;SDS011;12844;52.110;5.548;2022-09-09T12:32:37;2.63;;;0.90;;
24743;SDS011;12844;52.110;5.548;2022-09-09T12:35:08;2.38;;;0.75;;
24743;SDS011;12844;52.110;5.548;2022-09-09T12:42:47;1.25;;;0.60;;
24743;SDS011;12844;52.110;5.548;2022-09-09T12:45:17;2.95;;;0.82;;
24743;SDS011;12844;52.110;5.548;2022-09-09T12:47:49;1.55;;;1.00;;
24743;SDS011;12844;52.110;5.548;2022-09-09T12:50:17;1.17;;;0.73;;
24743;SDS011;12844;52.110;5.548;2022-09-09T12:52:46;1.45;;;0.90;;
24743;SDS011;12844;52.110;5.548;2022-09-09T12:55:21;1.73;;;0.80;;
24743;SDS011;12844;52.110;5.548;2022-09-09T12:57:50;1.65;;;0.80;;
24743;SDS011;12844;52.110;5.548;2022-09-09T13:00:18;1.33;;;0.65;;
24743;SDS011;12844;52.110;5.548;2022-09-09T13:02:48;1.60;;;0.77;;
24743;SDS011;12844;52.110;5.548;2022-09-09T13:05:26;1.30;;;0.68;;
24743;SDS011;12844;52.110;5.548;2022-09-09T16:17:02;2.05;;;0.88;;
24743;SDS011;12844;52.110;5.548;2022-09-09T16:19:28;2.08;;;1.02;;
24743;SDS011;12844;52.110;5.548;2022-09-09T16:21:53;3.38;;;1.08;;
24743;SDS011;12844;52.110;5.548;2022-09-09T16:24:19;2.17;;;1.10;;
24743;SDS011;12844;52.110;5.548;2022-09-09T16:26:46;2.25;;;0.90;;
24743;SDS011;12844;52.110;5.548;2022-09-09T16:29:14;1.42;;;0.80;;
24743;SDS011;12844;52.110;5.548;2022-09-09T16:31:41;2.85;;;1.02;;
24743;SDS011;12844;52.110;5.548;2022-09-09T16:34:08;2.30;;;0.88;;
24743;SDS011;12844;52.110;5.548;2022-09-09T16:36:34;3.72;;;0.90;;
24743;SDS011;12844;52.110;5.548;2022-09-09T16:39:03;3.05;;;1.00;;
24743;SDS011;12844;52.110;5.548;2022-09-09T16:41:34;2.03;;;1.08;;
24743;SDS011;12844;52.110;5.548;2022-09-09T16:44:00;2.40;;;1.23;;
24743;SDS011;12844;52.110;5.548;2022-09-09T16:46:32;2.97;;;0.90;;
24743;SDS011;12844;52.110;5.548;2022-09-09T16:49:01;2.95;;;1.13;;
24743;SDS011;12844;52.110;5.548;2022-09-09T16:51:39;4.65;;;1.10;;
24743;SDS011;12844;52.110;5.548;2022-09-09T16:54:07;1.80;;;1.00;;
24743;SDS011;12844;52.110;5.548;2022-09-09T16:56:35;3.88;;;1.10;;
24743;SDS011;12844;52.110;5.548;2022-09-09T16:59:03;4.63;;;1.10;;
24743;SDS011;12844;52.110;5.548;2022-09-09T17:01:34;2.50;;;1.20;;
24743;SDS011;12844;52.110;5.548;2022-09-09T17:04:03;2.97;;;1.35;;
24743;SDS011;12844;52.110;5.548;2022-09-09T17:06:31;3.08;;;1.20;;
24743;SDS011;12844;52.110;5.548;2022-09-09T17:09:00;3.33;;;1.30;;
24743;SDS011;12844;52.110;5.548;2022-09-09T17:11:26;2.38;;;1.15;;
24743;SDS011;12844;52.110;5.548;2022-09-09T17:13:53;2.78;;;1.25;;
24743;SDS011;12844;52.110;5.548;2022-09-09T17:16:20;2.35;;;1.20;;
24743;SDS011;12844;52.110;5.548;2022-09-09T17:18:47;3.78;;;1.10;;
24743;SDS011;12844;52.110;5.548;2022-09-09T17:21:14;2.78;;;1.02;;
24743;SDS011;12844;52.110;5.548;2022-09-09T17:23:41;3.53;;;1.20;;
24743;SDS011;12844;52.110;5.548;2022-09-09T17:26:08;2.10;;;1.00;;
24743;SDS011;12844;52.110;5.548;2022-09-09T17:28:36;1.77;;;1.10;;
24743;SDS011;12844;52.110;5.548;2022-09-09T17:31:03;3.83;;;1.45;;
24743;SDS011;12844;52.110;5.548;2022-09-09T17:33:37;3.42;;;1.20;;
24743;SDS011;12844;52.110;5.548;2022-09-09T17:36:11;4.38;;;1.08;;
24743;SDS011;12844;52.110;5.548;2022-09-09T17:38:40;5.68;;;1.42;;
24743;SDS011;12844;52.110;5.548;2022-09-09T17:41:11;4.97;;;1.30;;
24743;SDS011;12844;52.110;5.548;2022-09-09T17:43:38;3.28;;;1.00;;
24743;SDS011;12844;52.110;5.548;2022-09-09T17:46:18;2.72;;;1.10;;
24743;SDS011;12844;52.110;5.548;2022-09-09T17:48:48;4.57;;;1.10;;
24743;SDS011;12844;52.110;5.548;2022-09-09T17:51:16;1.20;;;0.80;;
24743;SDS011;12844;52.110;5.548;2022-09-09T17:53:52;2.65;;;0.80;;
24743;SDS011;12844;52.110;5.548;2022-09-09T17:56:20;4.28;;;1.13;;
24743;SDS011;12844;52.110;5.548;2022-09-09T17:58:47;6.13;;;1.25;;
24743;SDS011;12844;52.110;5.548;2022-09-09T18:01:15;5.65;;;1.17;;
24743;SDS011;12844;52.110;5.548;2022-09-09T18:03:44;2.17;;;1.05;;
24743;SDS011;12844;52.110;5.548;2022-09-09T18:06:12;2.70;;;1.20;;
24743;SDS011;12844;52.110;5.548;2022-09-09T18:08:46;2.60;;;0.80;;
24743;SDS011;12844;52.110;5.548;2022-09-09T18:11:12;2.67;;;1.02;;
24743;SDS011;12844;52.110;5.548;2022-09-09T18:13:38;2.60;;;1.00;;
24743;SDS011;12844;52.110;5.548;2022-09-09T18:16:07;4.65;;;1.13;;
24743;SDS011;12844;52.110;5.548;2022-09-09T18:18:34;3.70;;;1.05;;
24743;SDS011;12844;52.110;5.548;2022-09-09T18:21:01;1.50;;;1.05;;
24743;SDS011;12844;52.110;5.548;2022-09-09T18:23:30;2.58;;;1.00;;
24743;SDS011;12844;52.110;5.548;2022-09-09T18:26:00;1.90;;;0.80;;
24743;SDS011;12844;52.110;5.548;2022-09-09T18:28:26;1.92;;;0.90;;
24743;SDS011;12844;52.110;5.548;2022-09-09T18:30:51;3.40;;;1.00;;
24743;SDS011;12844;52.110;5.548;2022-09-09T18:33:17;1.65;;;0.77;;
24743;SDS011;12844;52.110;5.548;2022-09-09T18:35:43;1.77;;;1.00;;
24743;SDS011;12844;52.110;5.548;2022-09-09T18:38:10;2.40;;;1.10;;
24743;SDS011;12844;52.110;5.548;2022-09-09T18:40:36;1.90;;;0.90;;
24743;SDS011;12844;52.110;5.548;2022-09-09T18:43:01;1.20;;;0.90;;
24743;SDS011;12844;52.110;5.548;2022-09-09T18:45:27;1.55;;;0.80;;
24743;SDS011;12844;52.110;5.548;2022-09-09T18:47:52;1.77;;;0.90;;
24743;SDS011;12844;52.110;5.548;2022-09-09T18:50:18;2.05;;;0.90;;
24743;SDS011;12844;52.110;5.548;2022-09-09T18:52:43;2.22;;;0.90;;
24743;SDS011;12844;52.110;5.548;2022-09-09T18:55:09;1.65;;;0.95;;
24743;SDS011;12844;52.110;5.548;2022-09-09T18:57:34;1.45;;;1.00;;
24743;SDS011;12844;52.110;5.548;2022-09-09T19:00:02;3.45;;;1.08;;
24743;SDS011;12844;52.110;5.548;2022-09-09T19:02:29;1.95;;;0.85;;
24743;SDS011;12844;52.110;5.548;2022-09-09T19:04:55;3.13;;;1.10;;
24743;SDS011;12844;52.110;5.548;2022-09-09T19:07:21;1.35;;;0.80;;
24743;SDS011;12844;52.110;5.548;2022-09-09T19:09:46;1.23;;;0.80;;
24743;SDS011;12844;52.110;5.548;2022-09-09T19:12:12;1.38;;;0.80;;
24743;SDS011;12844;52.110;5.548;2022-09-09T19:14:38;1.38;;;0.85;;
24743;SDS011;12844;52.110;5.548;2022-09-09T19:17:03;1.67;;;0.82;;
24743;SDS011;12844;52.110;5.548;2022-09-09T19:19:30;1.88;;;0.82;;
24743;SDS011;12844;52.110;5.548;2022-09-09T19:21:57;2.08;;;0.80;;
24743;SDS011;12844;52.110;5.548;2022-09-09T19:24:24;1.00;;;0.75;;
24743;SDS011;12844;52.110;5.548;2022-09-09T19:26:53;1.10;;;1.00;;
24743;SDS011;12844;52.110;5.548;2022-09-09T19:29:22;1.65;;;0.80;;
24743;SDS011;12844;52.110;5.548;2022-09-09T19:31:49;2.38;;;1.00;;
24743;SDS011;12844;52.110;5.548;2022-09-09T19:34:17;1.65;;;0.90;;
24743;SDS011;12844;52.110;5.548;2022-09-09T19:36:44;2.55;;;0.98;;
24743;SDS011;12844;52.110;5.548;2022-09-09T19:39:11;2.03;;;0.90;;
24743;SDS011;12844;52.110;5.548;2022-09-09T19:41:37;2.00;;;0.70;;
24743;SDS011;12844;52.110;5.548;2022-09-09T19:44:03;1.20;;;0.73;;
24743;SDS011;12844;52.110;5.548;2022-09-09T19:46:30;1.35;;;0.80;;
24743;SDS011;12844;52.110;5.548;2022-09-09T19:48:58;1.88;;;0.90;;
24743;SDS011;12844;52.110;5.548;2022-09-09T19:51:26;1.55;;;1.00;;
24743;SDS011;12844;52.110;5.548;2022-09-09T19:53:54;3.10;;;0.82;;
24743;SDS011;12844;52.110;5.548;2022-09-09T19:56:27;2.13;;;0.88;;
24743;SDS011;12844;52.110;5.548;2022-09-09T19:58:53;1.73;;;0.98;;
24743;SDS011;12844;52.110;5.548;2022-09-09T20:01:24;1.73;;;1.08;;
24743;SDS011;12844;52.110;5.548;2022-09-09T20:03:51;1.42;;;0.75;;
24743;SDS011;12844;52.110;5.548;2022-09-09T20:06:19;3.25;;;0.82;;
24743;SDS011;12844;52.110;5.548;2022-09-09T20:08:48;1.80;;;0.77;;
24743;SDS011;12844;52.110;5.548;2022-09-09T20:11:14;1.98;;;0.80;;
24743;SDS011;12844;52.110;5.548;2022-09-09T20:13:40;1.23;;;0.80;;
24743;SDS011;12844;52.110;5.548;2022-09-09T20:16:08;1.58;;;0.82;;
24743;SDS011;12844;52.110;5.548;2022-09-09T20:18:39;1.30;;;0.80;;
24743;SDS011;12844;52.110;5.548;2022-09-09T20:21:11;1.02;;;0.93;;
24743;SDS011;12844;52.110;5.548;2022-09-09T20:23:39;2.28;;;1.00;;
24743;SDS011;12844;52.110;5.548;2022-09-09T20:26:06;1.55;;;1.00;;
24743;SDS011;12844;52.110;5.548;2022-09-09T20:28:34;1.20;;;0.75;;
24743;SDS011;12844;52.110;5.548;2022-09-09T20:31:03;1.20;;;0.85;;
24743;SDS011;12844;52.110;5.548;2022-09-09T20:33:36;1.30;;;0.75;;
24743;SDS011;12844;52.110;5.548;2022-09-09T20:38:44;1.23;;;0.80;;
24743;SDS011;12844;52.110;5.548;2022-09-09T20:41:15;1.35;;;1.00;;
24743;SDS011;12844;52.110;5.548;2022-09-09T20:44:01;1.40;;;0.90;;
24743;SDS011;12844;52.110;5.548;2022-09-09T20:46:30;1.27;;;0.82;;
24743;SDS011;12844;52.110;5.548;2022-09-09T20:48:57;1.40;;;0.90;;
24743;SDS011;12844;52.110;5.548;2022-09-09T20:51:24;1.30;;;0.90;;
24743;SDS011;12844;52.110;5.548;2022-09-09T20:53:56;1.33;;;0.80;;
24743;SDS011;12844;52.110;5.548;2022-09-09T20:56:24;1.92;;;1.17;;
24743;SDS011;12844;52.110;5.548;2022-09-09T20:58:51;1.10;;;0.75;;
24743;SDS011;12844;52.110;5.548;2022-09-09T21:01:18;1.25;;;0.90;;
24743;SDS011;12844;52.110;5.548;2022-09-09T21:03:45;2.60;;;0.90;;
24743;SDS011;12844;52.110;5.548;2022-09-09T21:06:11;1.60;;;0.90;;
24743;SDS011;12844;52.110;5.548;2022-09-09T21:08:37;1.17;;;0.80;;
24743;SDS011;12844;52.110;5.548;2022-09-09T21:11:03;1.48;;;1.00;;
24743;SDS011;12844;52.110;5.548;2022-09-09T21:13:33;1.48;;;0.93;;
24743;SDS011;12844;52.110;5.548;2022-09-09T21:16:01;1.52;;;0.95;;
24743;SDS011;12844;52.110;5.548;2022-09-09T21:18:27;1.90;;;0.80;;
24743;SDS011;12844;52.110;5.548;2022-09-09T21:20:53;1.98;;;1.08;;
24743;SDS011;12844;52.110;5.548;2022-09-09T21:23:19;1.27;;;0.93;;
24743;SDS011;12844;52.110;5.548;2022-09-09T21:25:45;1.70;;;1.00;;
24743;SDS011;12844;52.110;5.548;2022-09-09T21:28:11;1.58;;;0.82;;
24743;SDS011;12844;52.110;5.548;2022-09-09T21:30:37;1.48;;;1.00;;
24743;SDS011;12844;52.110;5.548;2022-09-09T21:33:06;1.13;;;0.80;;
24743;SDS011;12844;52.110;5.548;2022-09-09T21:35:34;1.90;;;1.08;;
24743;SDS011;12844;52.110;5.548;2022-09-09T21:38:00;1.20;;;1.00;;
24743;SDS011;12844;52.110;5.548;2022-09-09T21:40:27;1.98;;;1.05;;
24743;SDS011;12844;52.110;5.548;2022-09-09T21:42:53;1.67;;;1.20;;
24743;SDS011;12844;52.110;5.548;2022-09-09T21:45:18;1.38;;;0.98;;
24743;SDS011;12844;52.110;5.548;2022-09-09T21:47:45;2.15;;;1.05;;
24743;SDS011;12844;52.110;5.548;2022-09-09T21:50:15;1.75;;;1.00;;
24743;SDS011;12844;52.110;5.548;2022-09-09T21:52:40;1.85;;;1.00;;
24743;SDS011;12844;52.110;5.548;2022-09-09T21:55:06;0.93;;;0.82;;
24743;SDS011;12844;52.110;5.548;2022-09-09T21:57:33;1.90;;;0.90;;
24743;SDS011;12844;52.110;5.548;2022-09-09T21:59:59;1.55;;;0.98;;
24743;SDS011;12844;52.110;5.548;2022-09-09T22:02:25;1.15;;;1.00;;
24743;SDS011;12844;52.110;5.548;2022-09-09T22:04:51;1.48;;;1.00;;
24743;SDS011;12844;52.110;5.548;2022-09-09T22:07:17;1.25;;;0.88;;
24743;SDS011;12844;52.110;5.548;2022-09-09T22:09:42;1.92;;;0.98;;
24743;SDS011;12844;52.110;5.548;2022-09-09T22:12:08;1.45;;;1.05;;
24743;SDS011;12844;52.110;5.548;2022-09-09T22:14:34;1.10;;;1.00;;
24743;SDS011;12844;52.110;5.548;2022-09-09T22:17:01;1.30;;;0.90;;
24743;SDS011;12844;52.110;5.548;2022-09-09T22:19:27;1.50;;;1.00;;
24743;SDS011;12844;52.110;5.548;2022-09-09T22:21:52;1.30;;;0.90;;
24743;SDS011;12844;52.110;5.548;2022-09-09T22:24:18;1.05;;;0.90;;
24743;SDS011;12844;52.110;5.548;2022-09-09T22:26:43;2.47;;;1.35;;
24743;SDS011;12844;52.110;5.548;2022-09-09T22:29:09;1.45;;;1.00;;
24743;SDS011;12844;52.110;5.548;2022-09-09T22:31:38;1.25;;;0.93;;
24743;SDS011;12844;52.110;5.548;2022-09-09T22:34:04;2.38;;;1.20;;
24743;SDS011;12844;52.110;5.548;2022-09-09T22:36:31;1.00;;;0.90;;
24743;SDS011;12844;52.110;5.548;2022-09-09T22:38:56;1.35;;;1.05;;
